Weather at Bienenfarm Airfield

Public forecast

Using degrees Celsius for public forecast. Weather courtesy of forecast.io.

Closest aviation weather report (METAR) to Bienenfarm Airfield

Closest report is Berlin Brandenburg Airport, 32.9 nm (61.0 km) ESE.

2024/07/25 07:20 (retrieved 23 minutes ago)

EDDB 250720Z AUTO 29008KT 260V330 9999 FEW026 18/10 Q1017 NOSIG

Closest aviation forecast (TAF) to Bienenfarm Airfield

Closest forecast is Berlin Brandenburg Airport, 32.9 nm (61.0 km) ESE.

2024/07/25 06:27 (retrieved 1 hour ago)

TAF TAF EDDB 250500Z 2506/2606 29007KT CAVOK BECMG 2516/2519 VRB03KT BECMG 2603/2606 13005KT